createdAt,value
2022-11-03T00:01:53.349Z,99627.34
2022-11-03T00:04:24.461Z,99619.38
2022-11-03T00:06:55.616Z,99623.47
2022-11-03T00:09:27.203Z,99607.59
2022-11-03T00:11:56.158Z,99605.22
2022-11-03T00:14:24.926Z,99607.25
2022-11-03T00:16:53.761Z,99599.84
2022-11-03T00:19:23.817Z,99598.13
2022-11-03T00:21:52.790Z,99599.16
2022-11-03T00:24:21.496Z,99604.22
2022-11-03T00:26:50.184Z,99597.09
2022-11-03T00:29:19.044Z,99598.34
2022-11-03T00:31:47.706Z,99597.44
2022-11-03T00:34:16.310Z,99593.28
2022-11-03T00:36:46.878Z,99591.06
2022-11-03T00:39:15.538Z,99585.22
2022-11-03T00:41:44.237Z,99576.63
2022-11-03T00:44:13.535Z,99570.50
2022-11-03T00:46:42.253Z,99571.19
2022-11-03T00:49:10.890Z,99571.31
2022-11-03T00:51:39.591Z,99574.03
2022-11-03T00:54:09.943Z,99565.09
2022-11-03T00:56:40.950Z,99559.78
2022-11-03T00:59:11.932Z,99568.13
2022-11-03T01:01:46.614Z,99577.25
2022-11-03T01:04:34.628Z,99576.97
2022-11-03T01:07:05.924Z,99578.00
2022-11-03T01:09:40.431Z,99587.25
2022-11-03T01:12:12.438Z,99579.16
2022-11-03T01:14:44.625Z,99580.47
2022-11-03T01:17:16.439Z,99580.75
2022-11-03T01:19:45.465Z,99582.09
2022-11-03T01:22:15.940Z,99577.19
2022-11-03T01:24:47.098Z,99574.34
2022-11-03T01:27:19.335Z,99571.88
2022-11-03T01:29:48.150Z,99572.94
2022-11-03T01:32:16.819Z,99566.34
2022-11-03T01:34:45.461Z,99566.19
2022-11-03T01:37:14.077Z,99566.53
2022-11-03T01:39:42.764Z,99565.25
2022-11-03T01:42:14.551Z,99571.13
2022-11-03T01:44:47.933Z,99569.03
2022-11-03T01:47:26.396Z,99570.19
2022-11-03T01:50:01.891Z,99561.34
2022-11-03T01:52:38.374Z,99566.47
2022-11-03T01:55:13.988Z,99555.47
2022-11-03T01:57:56.959Z,99558.28
2022-11-03T02:00:25.704Z,99555.38
2022-11-03T02:02:55.583Z,99543.84
2022-11-03T02:05:28.113Z,99534.53
2022-11-03T02:08:05.520Z,99527.56
2022-11-03T02:10:35.034Z,99521.34
2022-11-03T02:13:13.994Z,99521.53
2022-11-03T02:15:43.215Z,99521.53
2022-11-03T02:18:13.894Z,99511.56
2022-11-03T02:20:44.947Z,99515.03
2022-11-03T02:23:30.502Z,99499.84
2022-11-03T02:26:02.217Z,99509.53
2022-11-03T02:28:34.461Z,99502.50
2022-11-03T02:31:16.558Z,99506.16
2022-11-03T02:33:55.063Z,99498.84
2022-11-03T02:36:32.546Z,99498.66
2022-11-03T02:39:07.010Z,99497.75
2022-11-03T02:41:40.412Z,99488.88
2022-11-03T02:44:17.184Z,99481.19
2022-11-03T02:46:51.741Z,99483.28
2022-11-03T02:49:20.495Z,99470.22
2022-11-03T02:51:49.130Z,99469.84
2022-11-03T02:54:26.748Z,99467.72
2022-11-03T02:57:04.824Z,99460.53
2022-11-03T02:59:46.260Z,99457.78
2022-11-03T03:02:23.467Z,99457.69
2022-11-03T03:04:58.230Z,99453.66
2022-11-03T03:07:31.949Z,99449.81
2022-11-03T03:10:05.124Z,99451.00
2022-11-03T03:12:39.505Z,99453.09
2022-11-03T03:15:10.758Z,99447.81
2022-11-03T03:17:47.111Z,99450.91
2022-11-03T03:20:23.692Z,99449.78
2022-11-03T03:22:58.391Z,99438.47
2022-11-03T03:25:33.102Z,99434.09
2022-11-03T03:28:09.048Z,99422.47
2022-11-03T03:30:41.681Z,99433.44
2022-11-03T03:33:12.358Z,99427.59
2022-11-03T03:35:46.278Z,99418.72
2022-11-03T03:38:21.064Z,99425.13
2022-11-03T03:40:55.004Z,99416.53
2022-11-03T03:43:28.368Z,99404.22
2022-11-03T03:46:04.156Z,99395.97
2022-11-03T03:48:32.914Z,99390.94
2022-11-03T03:51:03.839Z,99378.53
2022-11-03T03:53:32.732Z,99384.28
2022-11-03T03:56:01.915Z,99376.16
2022-11-03T03:58:32.294Z,99373.19
2022-11-03T04:01:03.929Z,99364.81
2022-11-03T04:03:32.677Z,99357.75
2022-11-03T04:06:01.367Z,99367.63
2022-11-03T04:08:31.119Z,99357.84
2022-11-03T04:11:17.289Z,99367.53
2022-11-03T04:14:04.744Z,99365.81
2022-11-03T04:16:48.256Z,99351.09
2022-11-03T04:19:33.970Z,99356.28
2022-11-03T04:22:17.857Z,99350.91
2022-11-03T04:24:48.399Z,99346.16
2022-11-03T04:27:31.953Z,99346.78
2022-11-03T04:30:16.499Z,99341.03
2022-11-03T04:32:47.337Z,99344.69
2022-11-03T04:35:19.601Z,99337.66
2022-11-03T04:37:55.479Z,99340.94
2022-11-03T04:40:24.318Z,99340.50
2022-11-03T04:42:53.337Z,99337.47
2022-11-03T04:45:31.680Z,99335.00
2022-11-03T04:48:03.231Z,99328.97
2022-11-03T04:50:31.868Z,99329.44
2022-11-03T04:53:01.111Z,99334.25
2022-11-03T04:55:29.772Z,99324.41
2022-11-03T04:58:03.869Z,99327.25
2022-11-03T05:00:33.946Z,99326.97
2022-11-03T05:03:02.756Z,99326.06
2022-11-03T05:05:31.421Z,99320.66
2022-11-03T05:08:00.585Z,99320.78
2022-11-03T05:10:30.939Z,99316.38
2022-11-03T05:13:02.177Z,99328.69
2022-11-03T05:15:37.407Z,99314.91
2022-11-03T05:18:21.627Z,99316.56
2022-11-03T05:20:57.969Z,99311.09
2022-11-03T05:23:30.912Z,99303.69
2022-11-03T05:26:00.537Z,99298.00
2022-11-03T05:28:34.937Z,99300.38
2022-11-03T05:31:28.520Z,99301.09
2022-11-03T05:34:01.380Z,99298.00
2022-11-03T05:36:33.033Z,99292.81
2022-11-03T05:39:26.481Z,99291.44
2022-11-03T05:41:55.765Z,99285.50
2022-11-03T05:44:33.819Z,99284.75
2022-11-03T05:47:07.454Z,99285.03
2022-11-03T05:49:37.140Z,99280.75
2022-11-03T05:52:13.193Z,99288.59
2022-11-03T05:54:43.438Z,99284.88
2022-11-03T05:57:15.962Z,99286.22
2022-11-03T05:59:47.573Z,99277.91
2022-11-03T06:02:38.410Z,99284.31
2022-11-03T06:05:19.335Z,99284.84
2022-11-03T06:07:49.898Z,99281.84
2022-11-03T06:10:26.744Z,99277.38
2022-11-03T06:13:04.544Z,99283.38
2022-11-03T06:15:37.082Z,99284.31
2022-11-03T06:18:17.763Z,99283.94
2022-11-03T06:20:52.584Z,99273.16
2022-11-03T06:23:22.584Z,99271.16
2022-11-03T06:25:53.894Z,99275.28
2022-11-03T06:28:27.025Z,99271.91
2022-11-03T06:30:56.263Z,99273.25
2022-11-03T06:33:31.418Z,99277.19
2022-11-03T06:36:07.987Z,99275.06
2022-11-03T06:38:38.107Z,99278.00
2022-11-03T06:41:19.561Z,99274.63
2022-11-03T06:43:48.193Z,99273.88
2022-11-03T06:46:23.905Z,99265.38
2022-11-03T06:48:56.816Z,99263.19
2022-11-03T06:51:29.079Z,99267.75
2022-11-03T06:54:02.640Z,99265.72
2022-11-03T06:56:38.139Z,99257.59
2022-11-03T06:59:15.569Z,99260.50
2022-11-03T07:01:47.223Z,99255.66
2022-11-03T07:04:23.243Z,99249.97
2022-11-03T07:06:53.770Z,99250.16
2022-11-03T07:09:26.556Z,99240.06
2022-11-03T07:11:59.449Z,99245.25
2022-11-03T07:14:33.135Z,99227.56
2022-11-03T07:17:06.355Z,99226.00
2022-11-03T07:19:41.739Z,99224.63
2022-11-03T07:22:23.168Z,99213.09
2022-11-03T07:24:56.037Z,99208.88
2022-11-03T07:27:29.078Z,99203.00
2022-11-03T07:30:01.979Z,99206.94
2022-11-03T07:32:34.815Z,99203.88
2022-11-03T07:35:20.901Z,99197.00
2022-11-03T07:37:52.824Z,99192.75
2022-11-03T07:40:27.666Z,99194.63
2022-11-03T07:43:01.659Z,99188.56
2022-11-03T07:45:39.725Z,99175.13
2022-11-03T07:48:21.792Z,99176.03
2022-11-03T07:50:55.400Z,99174.44
2022-11-03T07:53:34.469Z,99181.63
2022-11-03T07:56:14.919Z,99175.91
2022-11-03T07:58:44.857Z,99176.09
2022-11-03T08:01:35.346Z,99170.00
2022-11-03T08:04:08.531Z,99167.19
2022-11-03T08:06:38.599Z,99158.06
2022-11-03T08:09:07.278Z,99155.22
2022-11-03T08:11:35.874Z,99150.97
2022-11-03T08:14:04.555Z,99153.25
2022-11-03T08:16:33.206Z,99150.22
2022-11-03T08:19:01.840Z,99145.31
2022-11-03T08:21:30.585Z,99149.84
2022-11-03T08:24:00.796Z,99144.09
2022-11-03T08:26:29.639Z,99142.72
2022-11-03T08:28:58.481Z,99135.38
2022-11-03T08:31:27.223Z,99136.41
2022-11-03T08:33:55.852Z,99131.53
2022-11-03T08:36:24.442Z,99121.94
2022-11-03T08:38:53.163Z,99119.88
2022-11-03T08:41:23.169Z,99120.91
2022-11-03T08:43:51.742Z,99119.25
2022-11-03T08:46:20.371Z,99110.66
2022-11-03T08:48:48.983Z,99110.88
2022-11-03T08:51:18.047Z,99117.19
2022-11-03T08:53:50.739Z,99104.47
2022-11-03T08:56:22.365Z,99103.56
2022-11-03T08:58:53.110Z,99106.97
2022-11-03T09:01:21.904Z,99098.91
2022-11-03T09:03:50.640Z,99088.53
2022-11-03T09:06:19.247Z,99086.81
2022-11-03T09:11:36.427Z,99081.22
2022-11-03T09:14:06.473Z,99082.28
2022-11-03T09:16:35.085Z,99077.75
2022-11-03T09:19:03.830Z,99073.22
2022-11-03T09:21:32.700Z,99079.44
2022-11-03T09:24:01.392Z,99062.97
2022-11-03T09:26:30.141Z,99069.53
2022-11-03T09:28:58.780Z,99065.41
2022-11-03T09:31:30.181Z,99051.38
2022-11-03T09:33:58.850Z,99045.56
2022-11-03T09:36:27.573Z,99044.19
2022-11-03T09:38:56.216Z,99044.88
2022-11-03T09:41:27.590Z,99038.88
2022-11-03T09:44:00.554Z,99038.72
2022-11-03T09:46:31.626Z,99041.00
2022-11-03T09:49:00.861Z,99040.41
2022-11-03T09:51:30.460Z,99029.34
2022-11-03T09:54:04.177Z,99024.47
2022-11-03T09:56:37.077Z,99019.94
2022-11-03T09:59:17.269Z,99018.88
2022-11-03T10:01:50.970Z,99008.88
2022-11-03T10:04:27.045Z,99001.47
2022-11-03T10:06:57.137Z,99011.09
2022-11-03T10:09:30.923Z,99004.28
2022-11-03T10:11:59.719Z,98982.91
2022-11-03T10:14:28.609Z,98985.47
2022-11-03T10:17:01.095Z,98982.50
2022-11-03T10:19:32.410Z,98972.13
2022-11-03T10:22:01.189Z,98968.00
2022-11-03T10:24:29.931Z,98972.81
2022-11-03T10:26:58.552Z,98956.31
2022-11-03T10:29:29.051Z,98960.31
2022-11-03T10:32:00.733Z,98949.31
2022-11-03T10:34:36.640Z,98942.00
2022-11-03T10:37:21.928Z,98945.19
2022-11-03T10:39:52.870Z,98930.66
2022-11-03T10:42:24.387Z,98924.88
2022-11-03T10:44:56.286Z,98918.94
2022-11-03T10:47:33.898Z,98921.06
2022-11-03T10:50:23.322Z,98907.22
2022-11-03T10:52:53.289Z,98900.81
2022-11-03T10:55:25.795Z,98899.44
2022-11-03T10:57:56.762Z,98890.00
2022-11-03T11:00:26.414Z,98902.13
2022-11-03T11:03:02.785Z,98893.97
2022-11-03T11:05:31.552Z,98894.41
2022-11-03T11:08:02.389Z,98879.59
2022-11-03T11:10:32.540Z,98878.41
2022-11-03T11:13:27.039Z,98861.38
2022-11-03T11:15:58.484Z,98864.16
2022-11-03T11:19:13.324Z,98853.03
2022-11-03T11:22:03.991Z,98849.31
2022-11-03T11:24:59.689Z,98847.53
2022-11-03T11:28:12.958Z,98837.97
2022-11-03T11:32:00.265Z,98838.06
2022-11-03T11:34:42.612Z,98828.16
2022-11-03T11:37:37.392Z,98814.03
2022-11-03T11:40:15.376Z,98810.31
2022-11-03T11:43:27.823Z,98811.41
2022-11-03T11:46:39.928Z,98805.09
2022-11-03T11:49:19.329Z,98799.09
2022-11-03T11:51:49.522Z,98787.56
2022-11-03T11:54:22.119Z,98793.31
2022-11-03T11:56:51.861Z,98785.03
2022-11-03T11:59:26.135Z,98785.94
2022-11-03T12:01:57.970Z,98773.25
2022-11-03T12:04:31.863Z,98779.19
2022-11-03T12:07:02.734Z,98771.78
2022-11-03T12:09:31.608Z,98754.13
2022-11-03T12:12:08.237Z,98760.88
2022-11-03T12:14:39.696Z,98753.41
2022-11-03T12:17:34.493Z,98749.31
2022-11-03T12:20:35.623Z,98738.59
2022-11-03T12:23:05.763Z,98742.91
2022-11-03T12:25:40.181Z,98733.22
2022-11-03T12:28:10.330Z,98737.50
2022-11-03T12:30:40.241Z,98732.13
2022-11-03T12:33:10.942Z,98728.38
2022-11-03T12:35:39.846Z,98723.00
2022-11-03T12:38:09.907Z,98719.28
2022-11-03T12:40:38.590Z,98717.66
2022-11-03T12:43:07.466Z,98706.91
2022-11-03T12:45:36.378Z,98705.31
2022-11-03T12:48:06.210Z,98698.88
2022-11-03T12:50:35.369Z,98695.13
2022-11-03T12:53:04.338Z,98688.69
2022-11-03T12:55:36.442Z,98692.19
2022-11-03T12:58:07.207Z,98678.28
2022-11-03T13:00:36.004Z,98681.78
2022-11-03T13:03:04.842Z,98681.19
2022-11-03T13:05:33.718Z,98682.84
2022-11-03T13:08:02.417Z,98684.22
2022-11-03T13:10:33.618Z,98676.97
2022-11-03T13:13:01.204Z,98665.75
2022-11-03T13:15:29.914Z,98660.41
2022-11-03T13:18:12.714Z,98645.91
2022-11-03T13:20:44.412Z,98631.44
2022-11-03T13:23:15.129Z,98626.06
2022-11-03T13:25:50.315Z,98626.41
2022-11-03T13:28:20.249Z,98616.22
2022-11-03T13:30:49.234Z,98607.84
2022-11-03T13:33:19.261Z,98611.91
2022-11-03T13:35:49.042Z,98596.63
2022-11-03T13:38:17.707Z,98590.50
2022-11-03T13:40:56.885Z,98585.38
2022-11-03T13:43:27.498Z,98581.03
2022-11-03T13:45:58.645Z,98577.72
2022-11-03T13:51:17.757Z,98564.88
2022-11-03T13:59:27.927Z,98559.31
2022-11-03T14:04:46.042Z,98565.44
2022-11-03T14:07:14.712Z,98554.72
2022-11-03T14:09:43.288Z,98550.09
2022-11-03T14:12:28.962Z,98544.59
2022-11-03T14:14:59.093Z,98535.25
2022-11-03T14:17:28.240Z,98539.50
2022-11-03T14:20:03.715Z,98531.19
2022-11-03T14:22:33.418Z,98536.28
2022-11-03T14:25:02.215Z,98530.38
2022-11-03T14:27:30.919Z,98535.22
2022-11-03T14:30:01.166Z,98539.50
2022-11-03T14:32:29.806Z,98528.78
2022-11-03T14:34:58.516Z,98528.97
2022-11-03T14:37:28.731Z,98527.34
2022-11-03T14:39:57.465Z,98511.75
2022-11-03T14:42:25.196Z,98516.81
2022-11-03T14:44:55.079Z,98513.28
2022-11-03T14:47:25.894Z,98515.41
2022-11-03T14:49:55.032Z,98512.47
2022-11-03T14:52:24.979Z,98503.84
2022-11-03T14:54:54.121Z,98493.97
2022-11-03T14:57:22.763Z,98487.47
2022-11-03T14:59:53.716Z,98479.16
2022-11-03T15:02:25.071Z,98474.56
2022-11-03T15:04:54.179Z,98461.66
2022-11-03T15:07:23.736Z,98456.56
2022-11-03T15:09:55.143Z,98446.59
2022-11-03T15:12:23.876Z,98442.53
2022-11-03T15:14:52.510Z,98434.75
2022-11-03T15:17:22.253Z,98432.81
2022-11-03T15:19:56.297Z,98437.06
2022-11-03T15:25:13.599Z,98427.84
2022-11-03T15:27:42.366Z,98426.97
2022-11-03T15:30:12.312Z,98436.81
2022-11-03T15:32:40.948Z,98432.78
2022-11-03T15:35:11.429Z,98429.53
2022-11-03T15:37:40.200Z,98419.31
2022-11-03T15:40:13.635Z,98426.00
2022-11-03T15:42:43.728Z,98433.69
2022-11-03T15:45:15.855Z,98420.50
2022-11-03T15:47:46.163Z,98408.66
2022-11-03T15:50:16.928Z,98402.13
2022-11-03T15:52:45.995Z,98399.91
2022-11-03T15:55:14.865Z,98397.75
2022-11-03T15:57:45.618Z,98398.16
2022-11-03T16:00:16.062Z,98392.19
2022-11-03T16:02:45.118Z,98391.38
2022-11-03T16:05:17.762Z,98385.63
2022-11-03T16:07:50.876Z,98377.59
2022-11-03T16:10:19.799Z,98379.94
2022-11-03T16:12:49.042Z,98380.09
2022-11-03T16:15:18.521Z,98372.09
2022-11-03T16:17:47.200Z,98373.41
2022-11-03T16:20:17.877Z,98368.22
2022-11-03T16:22:46.842Z,98368.22
2022-11-03T16:25:19.147Z,98374.84
2022-11-03T16:27:49.656Z,98367.09
2022-11-03T16:30:19.741Z,98369.19
2022-11-03T16:32:48.704Z,98360.03
2022-11-03T16:35:18.834Z,98352.00
2022-11-03T16:37:47.589Z,98352.75
2022-11-03T16:40:19.307Z,98349.19
2022-11-03T16:42:48.596Z,98343.03
2022-11-03T16:45:20.316Z,98341.03
2022-11-03T16:47:51.170Z,98341.03
2022-11-03T16:50:22.955Z,98341.84
2022-11-03T16:52:53.867Z,98334.53
2022-11-03T16:55:24.360Z,98328.94
2022-11-03T16:57:53.185Z,98328.38
2022-11-03T17:00:24.467Z,98313.63
2022-11-03T17:02:54.765Z,98300.75
2022-11-03T17:05:26.755Z,98301.72
2022-11-03T17:07:56.520Z,98295.06
2022-11-03T17:10:27.819Z,98285.44
2022-11-03T17:12:58.095Z,98279.28
2022-11-03T17:15:29.852Z,98270.22
2022-11-03T17:17:58.731Z,98268.59
2022-11-03T17:20:30.317Z,98262.91
2022-11-03T17:22:59.018Z,98261.88
2022-11-03T17:25:28.120Z,98263.75
2022-11-03T17:28:00.528Z,98260.75
2022-11-03T17:30:34.473Z,98253.38
2022-11-03T17:33:09.101Z,98257.75
2022-11-03T17:35:43.496Z,98243.09
2022-11-03T17:38:17.728Z,98241.22
2022-11-03T17:40:49.076Z,98232.66
2022-11-03T17:43:24.920Z,98229.91
2022-11-03T17:45:54.275Z,98232.00
2022-11-03T17:48:24.370Z,98225.53
2022-11-03T17:50:57.843Z,98221.81
2022-11-03T17:53:31.417Z,98220.75
2022-11-03T17:56:28.565Z,98217.28
2022-11-03T17:58:52.100Z,98203.84
2022-11-03T18:01:25.272Z,98205.69
2022-11-03T18:03:54.680Z,98198.19
2022-11-03T18:06:25.569Z,98197.53
2022-11-03T18:08:54.787Z,98199.16
2022-11-03T18:11:48.188Z,98185.81
2022-11-03T18:14:18.929Z,98179.88
2022-11-03T18:16:50.518Z,98173.72
2022-11-03T18:19:20.438Z,98173.97
2022-11-03T18:21:51.715Z,98166.38
2022-11-03T18:24:21.939Z,98168.00
2022-11-03T18:26:50.776Z,98161.03
2022-11-03T18:29:19.845Z,98162.09
2022-11-03T18:31:50.907Z,98155.13
2022-11-03T18:34:28.912Z,98139.53
2022-11-03T18:36:59.602Z,98140.09
2022-11-03T18:39:30.067Z,98134.47
2022-11-03T18:41:58.855Z,98123.00
2022-11-03T18:44:30.671Z,98124.13
2022-11-03T18:47:03.844Z,98116.38
2022-11-03T18:49:34.011Z,98123.69
2022-11-03T18:52:14.389Z,98110.75
2022-11-03T18:54:47.891Z,98108.69
2022-11-03T18:57:23.068Z,98097.81
2022-11-03T18:59:52.213Z,98097.91
2022-11-03T19:02:24.071Z,98102.72
2022-11-03T19:04:53.242Z,98096.38
2022-11-03T19:07:31.384Z,98088.44
2022-11-03T19:10:03.367Z,98083.66
2022-11-03T19:12:38.785Z,98078.94
2022-11-03T19:15:12.368Z,98074.19
2022-11-03T19:17:44.452Z,98070.53
2022-11-03T19:20:18.424Z,98073.75
2022-11-03T19:22:49.314Z,98068.38
2022-11-03T19:25:18.819Z,98066.59
2022-11-03T19:27:50.025Z,98064.75
2022-11-03T19:30:36.052Z,98063.22
2022-11-03T19:33:07.613Z,98058.94
2022-11-03T19:35:37.233Z,98053.06
2022-11-03T19:38:14.935Z,98047.72
2022-11-03T19:41:01.069Z,98039.13
2022-11-03T19:43:34.352Z,98035.13
2022-11-03T19:46:06.420Z,98037.00
2022-11-03T19:49:01.600Z,98027.13
2022-11-03T19:51:30.698Z,98024.69
2022-11-03T19:54:00.918Z,98015.81
2022-11-03T19:56:29.620Z,98005.38
2022-11-03T19:58:58.437Z,97997.84
2022-11-03T20:01:27.186Z,98002.66
2022-11-03T20:03:55.942Z,98000.78
2022-11-03T20:06:24.817Z,97985.06
2022-11-03T20:09:20.354Z,97989.59
2022-11-03T20:11:49.053Z,97987.97
2022-11-03T20:14:27.141Z,97983.41
2022-11-03T20:16:58.267Z,97981.25
2022-11-03T20:19:29.199Z,97978.06
2022-11-03T20:21:58.670Z,97981.31
2022-11-03T20:24:28.766Z,97980.31
2022-11-03T20:26:57.486Z,97982.75
2022-11-03T20:29:28.552Z,97977.72
2022-11-03T20:32:00.795Z,97977.22
2022-11-03T20:34:29.419Z,97985.31
2022-11-03T20:37:01.452Z,97972.47
2022-11-03T20:39:36.938Z,97978.13
2022-11-03T20:42:05.933Z,97969.84
2022-11-03T20:44:34.621Z,97970.91
2022-11-03T20:47:04.273Z,97972.47
2022-11-03T20:49:33.370Z,97961.25
2022-11-03T20:52:02.108Z,97957.53
2022-11-03T20:54:31.807Z,97958.31
2022-11-03T20:57:01.866Z,97952.16
2022-11-03T20:59:33.234Z,97955.88
2022-11-03T21:02:05.033Z,97954.22
2022-11-03T21:04:34.644Z,97954.22
2022-11-03T21:07:03.374Z,97948.31
2022-11-03T21:09:32.083Z,97946.66
2022-11-03T21:12:02.455Z,97948.78
2022-11-03T21:14:32.960Z,97956.28
2022-11-03T21:17:19.328Z,97955.97
2022-11-03T21:20:02.210Z,97952.69
2022-11-03T21:22:53.828Z,97948.66
2022-11-03T21:25:25.132Z,97949.19
2022-11-03T21:27:56.018Z,97945.38
2022-11-03T21:30:25.127Z,97950.75
2022-11-03T21:32:53.728Z,97949.13
2022-11-03T21:35:23.982Z,97938.44
2022-11-03T21:37:52.941Z,97942.16
2022-11-03T21:40:21.782Z,97940.03
2022-11-03T21:43:08.169Z,97940.03
2022-11-03T21:45:38.581Z,97932.22
2022-11-03T21:48:26.335Z,97931.97
2022-11-03T21:50:54.991Z,97927.44
2022-11-03T21:53:23.655Z,97931.97
2022-11-03T21:55:53.672Z,97929.56
2022-11-03T21:58:23.452Z,97929.88
2022-11-03T22:00:54.207Z,97912.50
2022-11-03T22:03:23.226Z,97903.19
2022-11-03T22:05:52.169Z,97894.72
2022-11-03T22:08:20.913Z,97900.09
2022-11-03T22:10:52.848Z,97894.25
2022-11-03T22:13:21.639Z,97895.13
2022-11-03T22:16:07.825Z,97890.34
2022-11-03T22:18:37.824Z,97885.31
2022-11-03T22:21:24.164Z,97890.69
2022-11-03T22:24:09.106Z,97880.25
2022-11-03T22:26:55.049Z,97878.13
2022-11-03T22:29:41.424Z,97872.00
2022-11-03T22:32:15.969Z,97861.28
2022-11-03T22:35:03.512Z,97867.16
2022-11-03T22:40:19.248Z,97855.72
2022-11-03T22:43:05.767Z,97862.44
2022-11-03T22:45:54.509Z,97857.88
2022-11-03T22:48:25.404Z,97844.78
2022-11-03T22:51:01.269Z,97845.31
2022-11-03T22:53:49.476Z,97839.41
2022-11-03T22:56:19.403Z,97837.78
2022-11-03T22:58:48.271Z,97832.44
2022-11-03T23:01:20.694Z,97830.03
2022-11-03T23:03:51.059Z,97828.44
2022-11-03T23:06:23.715Z,97830.84
2022-11-03T23:08:55.323Z,97834.06
2022-11-03T23:11:26.970Z,97838.88
2022-11-03T23:13:58.780Z,97828.69
2022-11-03T23:16:30.286Z,97819.03
2022-11-03T23:19:20.968Z,97818.25
2022-11-03T23:21:53.408Z,97829.19
2022-11-03T23:24:43.905Z,97818.50
2022-11-03T23:27:18.367Z,97817.38
2022-11-03T23:29:47.164Z,97813.34
2022-11-03T23:32:16.229Z,97806.13
2022-11-03T23:34:45.062Z,97806.03
2022-11-03T23:37:15.578Z,97796.97
2022-11-03T23:39:47.260Z,97788.13
2022-11-03T23:42:19.173Z,97789.97
2022-11-03T23:45:08.506Z,97783.25
2022-11-03T23:47:54.415Z,97787.25
2022-11-03T23:50:23.122Z,97772.53
2022-11-03T23:52:53.193Z,97776.53
2022-11-03T23:55:21.890Z,97776.78
2022-11-03T23:58:16.069Z,97777.88
